Time;durP1;ratioP1;P1;durP2;ratioP2;P2;SDS_P1;SDS_P2;PMS_P1;PMS_P2;Temp;Humidity;BMP_temperature;BMP_pressure;BME280_temperature;BME280_humidity;BME280_pressure;Samples;Min_cycle;Max_cycle;Signal;HPM_P1;HPM_P2
2020/12/21 00:01:51;;;;;;;201.30;94.97;;;;;;;-3.39;73.78;95581.31;1740708;82;21104;-50
2020/12/21 00:04:19;;;;;;;206.50;94.50;;;;;;;-3.36;73.81;95577.94;1740705;82;21124;-51
2020/12/21 00:06:54;;;;;;;210.30;96.25;;;;;;;-3.28;73.91;95580.50;1740832;81;21572;-51
2020/12/21 00:09:24;;;;;;;221.72;101.62;;;;;;;-3.22;73.67;95581.83;1740762;82;21077;-50
2020/12/21 00:11:54;;;;;;;205.32;96.78;;;;;;;-3.22;73.40;95581.83;1740702;82;21262;-50
2020/12/21 00:14:22;;;;;;;204.13;94.52;;;;;;;-3.27;73.48;95579.38;1740691;82;21105;-50
2020/12/21 00:16:52;;;;;;;220.85;99.65;;;;;;;-3.28;73.41;95581.84;1740688;82;21065;-50
2020/12/21 00:19:21;;;;;;;242.90;105.80;;;;;;;-3.38;73.27;95567.51;1740824;81;21481;-50
2020/12/21 00:21:52;;;;;;;293.33;115.67;;;;;;;-3.46;73.47;95570.35;1740854;82;21593;-51
2020/12/21 00:24:21;;;;;;;254.97;107.32;;;;;;;-3.48;73.54;95573.91;1740714;81;21199;-50
2020/12/21 00:26:51;;;;;;;243.20;104.17;;;;;;;-3.47;73.59;95574.94;1740670;82;21105;-50
2020/12/21 00:29:20;;;;;;;168.82;82.12;;;;;;;-3.49;73.57;95571.80;1740697;82;21155;-51
2020/12/21 00:31:51;;;;;;;171.53;83.62;;;;;;;-3.52;73.44;95573.83;1741006;82;21076;-50
2020/12/21 00:34:19;;;;;;;184.67;85.25;;;;;;;-3.55;73.54;95571.59;1740781;82;21776;-50
2020/12/21 00:36:52;;;;;;;196.75;91.53;;;;;;;-3.51;73.81;95565.98;1740649;81;21160;-50
2020/12/21 00:39:20;;;;;;;261.50;112.07;;;;;;;-3.47;73.65;95570.90;1743499;80;21203;-50
2020/12/21 00:41:49;;;;;;;271.23;113.05;;;;;;;-3.47;73.75;95576.27;1758901;81;21539;-50
2020/12/21 00:44:17;;;;;;;269.68;113.70;;;;;;;-3.48;73.75;95567.98;1758898;81;21131;-51
2020/12/21 00:46:47;;;;;;;198.78;85.38;;;;;;;-3.48;73.47;95566.64;1758854;81;21122;-49
2020/12/21 00:49:15;;;;;;;203.40;87.20;;;;;;;-3.54;73.48;95567.78;1758790;81;21214;-50
2020/12/21 00:51:44;;;;;;;174.55;82.97;;;;;;;-3.67;73.29;95568.33;1758786;81;21056;-50
2020/12/21 00:54:12;;;;;;;166.10;71.37;;;;;;;-3.77;73.48;95566.66;1758839;80;21060;-50
2020/12/21 00:56:41;;;;;;;188.93;85.85;;;;;;;-3.83;73.57;95568.02;1758782;81;21096;-50
2020/12/21 00:59:09;;;;;;;187.50;81.50;;;;;;;-3.87;73.60;95568.47;1758857;81;21108;-50
2020/12/21 01:01:38;;;;;;;190.73;85.95;;;;;;;-3.95;73.53;95567.45;1758814;81;21191;-50
2020/12/21 01:04:07;;;;;;;194.65;85.83;;;;;;;-4.05;73.68;95573.83;1758726;81;21147;-51
2020/12/21 01:06:35;;;;;;;200.03;90.07;;;;;;;-4.09;74.05;95570.25;1758813;81;21430;-50
2020/12/21 01:09:10;;;;;;;191.98;83.87;;;;;;;-4.07;74.11;95572.05;1739947;81;21059;-49
2020/12/21 01:11:34;;;;;;;185.12;82.33;;;;;;;-4.04;74.21;95568.68;1758550;81;21080;-50
2020/12/21 01:14:02;;;;;;;177.15;74.92;;;;;;;-4.03;74.02;95572.36;1758920;80;21064;-49
2020/12/21 01:16:31;;;;;;;172.85;73.35;;;;;;;-4.03;74.09;95570.25;1758676;81;21123;-49
2020/12/21 01:19:00;;;;;;;174.10;75.60;;;;;;;-4.00;74.23;95567.69;1758804;80;21064;-51
2020/12/21 01:21:31;;;;;;;182.00;81.12;;;;;;;-3.92;74.34;95563.30;1758806;80;21083;-50
2020/12/21 01:24:00;;;;;;;171.68;76.02;;;;;;;-3.82;74.23;95554.25;1758906;81;21128;-50
2020/12/21 01:26:30;;;;;;;177.55;78.92;;;;;;;-3.74;74.10;95556.03;1758908;80;22332;-50
2020/12/21 01:29:00;;;;;;;167.65;77.42;;;;;;;-3.64;73.87;95559.62;1758775;81;21911;-49
2020/12/21 01:31:30;;;;;;;171.98;77.78;;;;;;;-3.57;73.70;95560.38;1758865;81;21075;-49
2020/12/21 01:34:00;;;;;;;178.78;77.45;;;;;;;-3.53;73.40;95567.43;1757223;81;21183;-50
2020/12/21 01:36:29;;;;;;;167.98;75.25;;;;;;;-3.53;73.45;95566.08;1758781;81;21103;-50
2020/12/21 01:38:57;;;;;;;149.97;68.47;;;;;;;-3.50;73.44;95552.76;1758763;81;21276;-51
2020/12/21 01:41:26;;;;;;;141.68;68.07;;;;;;;-3.51;73.04;95564.64;1763519;80;21174;-49
2020/12/21 01:43:57;;;;;;;154.03;66.72;;;;;;;-3.54;72.85;95559.14;1764466;80;21107;-49
2020/12/21 01:46:26;;;;;;;170.85;74.20;;;;;;;-3.58;72.93;95560.95;1764468;81;21186;-50
2020/12/21 01:48:54;;;;;;;155.22;72.65;;;;;;;-3.61;72.70;95560.28;1764582;80;21470;-49
2020/12/21 01:51:26;;;;;;;159.52;69.55;;;;;;;-3.61;73.01;95562.17;1764646;81;21447;-50
2020/12/21 01:53:56;;;;;;;151.10;66.67;;;;;;;-3.52;73.18;95559.59;1764898;80;21500;-50
2020/12/21 01:56:24;;;;;;;137.32;64.60;;;;;;;-3.46;72.64;95563.05;1764590;81;21092;-49
2020/12/21 01:58:53;;;;;;;163.30;70.37;;;;;;;-3.42;72.82;95562.59;1764696;81;21063;-50
2020/12/21 02:01:21;;;;;;;149.18;70.17;;;;;;;-3.36;72.57;95565.84;1764700;81;21850;-49
2020/12/21 02:03:50;;;;;;;169.87;72.87;;;;;;;-3.32;72.52;95562.14;1764625;80;21440;-50
2020/12/21 02:06:18;;;;;;;167.15;77.62;;;;;;;-3.32;72.41;95564.83;1764530;81;21119;-49
2020/12/21 02:08:47;;;;;;;163.05;77.90;;;;;;;-3.34;72.38;95563.05;1764617;81;21076;-50
2020/12/21 02:11:16;;;;;;;153.82;70.87;;;;;;;-3.34;72.16;95556.86;1764584;81;21147;-50
2020/12/21 02:13:45;;;;;;;160.40;73.42;;;;;;;-3.32;72.14;95556.76;1764653;81;21075;-51
2020/12/21 02:16:15;;;;;;;170.15;75.75;;;;;;;-3.28;71.95;95555.53;1764618;81;21379;-49
2020/12/21 02:18:44;;;;;;;163.10;73.65;;;;;;;-3.29;71.83;95556.08;1764549;81;21083;-52
2020/12/21 02:21:13;;;;;;;174.90;76.53;;;;;;;-3.29;71.85;95546.66;1764684;81;21088;-49
2020/12/21 02:23:43;;;;;;;184.65;75.60;;;;;;;-3.29;71.56;95550.70;1764608;80;21123;-51
2020/12/21 02:26:11;;;;;;;184.97;81.47;;;;;;;-3.32;71.74;95546.55;1764742;80;21505;-51
2020/12/21 02:28:39;;;;;;;176.42;75.75;;;;;;;-3.36;71.36;95551.05;1764612;80;21383;-50
2020/12/21 02:31:08;;;;;;;151.35;67.22;;;;;;;-3.43;71.39;95540.86;1764616;81;21549;-50
2020/12/21 02:33:36;;;;;;;187.92;81.02;;;;;;;-3.48;71.19;95542.98;1764564;81;21194;-50
2020/12/21 02:36:06;;;;;;;189.67;79.65;;;;;;;-3.61;71.24;95541.46;1764602;81;21557;-50
2020/12/21 02:38:34;;;;;;;179.72;80.75;;;;;;;-3.73;71.35;95532.63;1764560;80;21086;-50
2020/12/21 02:41:03;;;;;;;196.20;83.65;;;;;;;-3.81;71.53;95534.31;1764387;80;21354;-50
2020/12/21 02:43:31;;;;;;;176.00;80.77;;;;;;;-3.79;71.71;95533.97;1764587;81;21107;-50
2020/12/21 02:46:01;;;;;;;163.80;76.97;;;;;;;-3.76;71.94;95531.94;1764555;81;21143;-50
2020/12/21 02:48:29;;;;;;;161.28;72.15;;;;;;;-3.60;72.22;95527.45;1764587;80;21075;-50
2020/12/21 02:50:58;;;;;;;148.70;63.45;;;;;;;-3.38;71.81;95521.79;1764617;80;21112;-51
2020/12/21 02:53:27;;;;;;;159.85;67.67;;;;;;;-3.25;71.07;95527.36;1764594;81;21528;-50
2020/12/21 02:55:55;;;;;;;182.15;72.95;;;;;;;-3.22;70.98;95528.60;1764546;80;21478;-50
2020/12/21 02:58:24;;;;;;;171.07;74.53;;;;;;;-3.17;70.97;95522.97;1764502;80;21072;-50
2020/12/21 03:00:52;;;;;;;161.92;72.72;;;;;;;-3.10;70.80;95526.65;1764551;80;21067;-52
2020/12/21 03:03:21;;;;;;;164.40;68.33;;;;;;;-2.99;70.66;95527.74;1764709;81;21489;-51
2020/12/21 03:05:49;;;;;;;136.15;60.15;;;;;;;-2.89;70.12;95520.51;1764590;81;21360;-52
2020/12/21 03:08:18;;;;;;;162.55;75.60;;;;;;;-2.85;69.59;95521.38;1764514;81;21535;-50
2020/12/21 03:10:46;;;;;;;147.93;67.17;;;;;;;-2.81;69.41;95522.28;1764559;80;21150;-51
2020/12/21 03:13:15;;;;;;;129.72;60.33;;;;;;;-2.79;69.29;95520.03;1764576;81;21226;-51
2020/12/21 03:15:45;;;;;;;119.28;56.08;;;;;;;-2.79;68.80;95509.81;1764629;80;21067;-51
2020/12/21 03:18:13;;;;;;;174.75;74.25;;;;;;;-2.83;68.57;95514.32;1764558;81;21386;-53
2020/12/21 03:20:41;;;;;;;178.65;75.80;;;;;;;-2.95;68.73;95524.58;1764607;81;21517;-51
2020/12/21 03:23:09;;;;;;;175.87;76.22;;;;;;;-3.07;69.06;95520.58;1764579;80;21115;-55
2020/12/21 03:25:38;;;;;;;166.43;72.85;;;;;;;-3.12;69.04;95519.48;1764529;81;21115;-55
2020/12/21 03:28:06;;;;;;;168.28;73.60;;;;;;;-3.16;69.19;95516.47;1764581;81;21147;-52
2020/12/21 03:30:35;;;;;;;167.13;73.00;;;;;;;-3.17;69.34;95514.91;1764575;81;21414;-52
2020/12/21 03:33:03;;;;;;;165.82;74.97;;;;;;;-3.12;69.44;95516.80;1764467;80;21835;-51
2020/12/21 03:35:32;;;;;;;151.57;67.08;;;;;;;-3.08;69.33;95516.33;1764547;81;21044;-51
2020/12/21 03:38:01;;;;;;;127.38;62.05;;;;;;;-3.09;68.95;95522.06;1764488;81;21047;-52
2020/12/21 03:40:29;;;;;;;158.25;74.50;;;;;;;-3.26;68.84;95517.73;1763471;80;21667;-52
2020/12/21 03:42:58;;;;;;;124.75;57.58;;;;;;;-3.43;68.92;95519.34;1758855;81;21137;-52
2020/12/21 03:45:26;;;;;;;145.02;68.40;;;;;;;-3.57;69.11;95513.31;1758808;80;21187;-52
2020/12/21 03:47:54;;;;;;;115.55;54.30;;;;;;;-3.62;69.77;95520.28;1758866;81;21036;-53
2020/12/21 03:50:23;;;;;;;96.12;46.42;;;;;;;-3.57;70.00;95520.84;1758894;81;21481;-52
2020/12/21 03:52:51;;;;;;;95.72;46.50;;;;;;;-3.54;69.76;95520.73;1758883;81;21206;-52
2020/12/21 03:55:21;;;;;;;94.00;47.60;;;;;;;-3.57;70.04;95526.77;1758904;81;21210;-54
2020/12/21 03:57:49;;;;;;;132.50;59.08;;;;;;;-3.55;69.98;95529.92;1758806;81;21156;-55
2020/12/21 04:00:18;;;;;;;145.20;68.55;;;;;;;-3.57;69.88;95521.38;1758864;81;21111;-53
2020/12/21 04:02:47;;;;;;;133.27;63.73;;;;;;;-3.66;69.75;95523.43;1758885;81;21624;-52
2020/12/21 04:05:15;;;;;;;129.27;62.17;;;;;;;-3.68;69.96;95520.30;1758876;81;21088;-52
2020/12/21 04:07:45;;;;;;;118.75;58.38;;;;;;;-3.65;70.09;95518.28;1758867;81;21211;-51
2020/12/21 04:10:15;;;;;;;104.43;52.05;;;;;;;-3.53;70.08;95520.95;1758653;81;21109;-53
2020/12/21 04:12:46;;;;;;;110.03;53.45;;;;;;;-3.45;69.82;95528.89;1758814;81;21064;-52
2020/12/21 04:15:13;;;;;;;94.05;46.25;;;;;;;-3.38;69.71;95523.12;1758959;81;21064;-51
2020/12/21 04:17:43;;;;;;;96.87;49.65;;;;;;;-3.29;69.63;95526.48;1758815;81;20984;-52
2020/12/21 04:20:11;;;;;;;125.12;55.52;;;;;;;-3.20;69.56;95528.47;1758865;81;21204;-53
2020/12/21 04:22:39;;;;;;;128.30;62.95;;;;;;;-3.14;69.33;95527.12;1758922;81;21555;-52
2020/12/21 04:25:08;;;;;;;129.23;61.18;;;;;;;-3.19;69.26;95527.37;1758824;81;21115;-52
2020/12/21 04:27:37;;;;;;;143.20;70.17;;;;;;;-3.27;69.04;95526.92;1758932;81;21146;-56
2020/12/21 04:30:06;;;;;;;144.47;70.08;;;;;;;-3.42;69.10;95530.32;1758907;81;21179;-55
2020/12/21 04:32:34;;;;;;;153.50;71.57;;;;;;;-3.47;69.11;95530.56;1758854;81;21266;-54
2020/12/21 04:35:03;;;;;;;152.93;72.65;;;;;;;-3.52;69.17;95526.55;1758930;81;21524;-61
2020/12/21 04:37:34;;;;;;;180.50;82.10;;;;;;;-3.47;69.49;95529.22;1758833;81;21088;-53
2020/12/21 04:40:02;;;;;;;172.80;79.30;;;;;;;-3.44;69.24;95521.81;1758856;81;21076;-52
2020/12/21 04:42:31;;;;;;;163.62;79.95;;;;;;;-3.41;69.13;95515.75;1763608;81;21039;-52
2020/12/21 04:44:59;;;;;;;179.85;86.32;;;;;;;-3.38;69.27;95529.09;1764532;81;21234;-53
2020/12/21 04:47:28;;;;;;;158.12;76.82;;;;;;;-3.39;69.20;95524.25;1764408;81;21915;-53
2020/12/21 04:49:56;;;;;;;164.37;85.03;;;;;;;-3.30;69.60;95522.23;1764506;81;21146;-52
2020/12/21 04:52:26;;;;;;;128.05;60.83;;;;;;;-3.22;69.23;95523.98;1764514;81;21107;-53
2020/12/21 04:54:54;;;;;;;165.77;84.28;;;;;;;-3.24;69.05;95526.23;1764531;80;21064;-53
2020/12/21 04:57:23;;;;;;;144.55;60.60;;;;;;;-3.38;69.00;95517.75;1764449;81;21354;-54
2020/12/21 04:59:52;;;;;;;148.75;70.25;;;;;;;-3.47;69.24;95529.22;1764524;81;21500;-51
2020/12/21 05:02:21;;;;;;;125.85;59.58;;;;;;;-3.54;69.52;95519.39;1764487;80;21079;-54
2020/12/21 05:04:53;;;;;;;189.03;76.47;;;;;;;-3.50;69.49;95527.22;1764472;81;21123;-53
2020/12/21 05:07:32;;;;;;;166.55;70.22;;;;;;;-3.54;69.34;95524.19;1764526;80;21484;-53
2020/12/21 05:10:10;;;;;;;146.50;68.35;;;;;;;-3.60;69.21;95522.06;1764512;81;21212;-54
2020/12/21 05:12:38;;;;;;;150.72;66.40;;;;;;;-3.70;69.54;95522.55;1764510;80;21575;-52
2020/12/21 05:15:17;;;;;;;277.95;101.67;;;;;;;-3.68;69.70;95519.72;1764496;80;21195;-53
2020/12/21 05:17:45;;;;;;;229.03;93.67;;;;;;;-3.72;69.63;95522.10;1764486;80;21067;-52
2020/12/21 05:20:13;;;;;;;200.38;82.97;;;;;;;-3.77;69.92;95523.66;1764465;80;21076;-53
2020/12/21 05:22:43;;;;;;;174.75;76.02;;;;;;;-3.70;70.14;95526.58;1764494;80;21189;-52
2020/12/21 05:25:11;;;;;;;157.43;67.15;;;;;;;-3.63;70.08;95522.75;1764518;80;21489;-53
2020/12/21 05:27:40;;;;;;;165.92;74.53;;;;;;;-3.59;70.07;95524.98;1764471;81;21116;-54
2020/12/21 05:30:08;;;;;;;168.62;79.30;;;;;;;-3.55;70.19;95528.58;1764453;81;21560;-52
2020/12/21 05:32:37;;;;;;;171.65;80.70;;;;;;;-3.42;70.51;95524.17;1699768;81;21166;-53
2020/12/21 05:35:08;;;;;;;156.40;76.57;;;;;;;-3.20;70.12;95528.47;1764209;81;40379;-53
2020/12/21 05:37:38;;;;;;;142.15;69.92;;;;;;;-3.10;69.61;95529.89;1764394;80;21611;-53
2020/12/21 05:40:08;;;;;;;125.02;66.92;;;;;;;-3.11;69.52;95526.44;1747740;81;21159;-53
2020/12/21 05:42:36;;;;;;;157.85;73.70;;;;;;;-3.10;69.28;95527.20;1760031;80;21180;-53
2020/12/21 05:45:07;;;;;;;145.87;69.95;;;;;;;-3.09;69.61;95526.10;1758814;81;21187;-53
2020/12/21 05:47:35;;;;;;;126.82;65.17;;;;;;;-2.99;69.36;95520.22;1758856;81;22293;-53
2020/12/21 05:50:06;;;;;;;116.70;59.83;;;;;;;-2.87;69.21;95518.83;1758825;81;21501;-52
2020/12/21 05:52:36;;;;;;;113.10;60.85;;;;;;;-2.76;68.93;95523.92;1758898;81;21084;-52
2020/12/21 05:55:10;;;;;;;131.03;63.70;;;;;;;-2.77;68.60;95523.70;1758811;81;21069;-54
2020/12/21 05:57:39;;;;;;;145.68;65.15;;;;;;;-2.82;68.81;95526.11;1758973;81;21123;-53
2020/12/21 06:00:09;;;;;;;164.35;76.35;;;;;;;-2.85;68.37;95529.45;1758919;81;22142;-54
2020/12/21 06:02:40;;;;;;;238.47;105.45;;;;;;;-3.03;68.32;95540.30;1758757;81;21167;-55
2020/12/21 06:05:12;;;;;;;206.20;100.02;;;;;;;-3.20;68.36;95540.56;1758894;81;21115;-55
2020/12/21 06:07:46;;;;;;;193.57;96.28;;;;;;;-3.30;68.71;95535.68;1758926;80;21492;-55
2020/12/21 06:10:14;;;;;;;194.65;96.12;;;;;;;-3.25;68.76;95538.70;1758553;81;21063;-56
2020/12/21 06:12:47;;;;;;;183.10;98.67;;;;;;;-3.22;69.01;95536.09;1758843;81;22150;-54
2020/12/21 06:15:20;;;;;;;165.77;89.00;;;;;;;-3.09;69.14;95538.98;1758549;81;21089;-53
2020/12/21 06:17:51;;;;;;;200.47;94.15;;;;;;;-2.97;68.66;95545.67;1775172;80;21107;-56
2020/12/21 06:20:21;;;;;;;194.07;98.10;;;;;;;-2.99;68.60;95546.58;1781345;80;21147;-53
2020/12/21 06:22:51;;;;;;;190.25;93.60;;;;;;;-3.01;68.63;95552.88;1757114;80;21609;-54
2020/12/21 06:25:22;;;;;;;168.80;89.05;;;;;;;-2.98;68.83;95552.73;1739232;80;21215;-53
2020/12/21 06:27:51;;;;;;;172.72;91.92;;;;;;;-2.90;68.70;95555.28;1781312;80;21072;-52
2020/12/21 06:30:29;;;;;;;194.30;86.15;;;;;;;-2.85;68.55;95552.34;1726648;80;21579;-54
2020/12/21 06:33:03;;;;;;;208.68;104.45;;;;;;;-2.78;68.46;95559.83;1781392;80;21119;-53
2020/12/21 06:35:43;;;;;;;200.82;103.80;;;;;;;-2.87;68.22;95559.98;1768221;80;21076;-56
2020/12/21 06:38:12;;;;;;;245.02;119.60;;;;;;;-2.91;68.49;95554.30;1759242;80;21631;-54
2020/12/21 06:40:40;;;;;;;221.07;113.80;;;;;;;-2.92;68.38;95560.77;1744725;80;21153;-54
2020/12/21 06:43:14;;;;;;;228.18;115.57;;;;;;;-3.00;68.36;95558.47;1717218;83;21153;-54
2020/12/21 06:45:43;;;;;;;229.95;113.08;;;;;;;-3.00;68.64;95559.81;1717204;82;21216;-55
2020/12/21 06:48:23;;;;;;;241.00;113.00;;;;;;;-2.94;68.61;95563.83;1717355;82;21038;-53
2020/12/21 06:50:52;;;;;;;300.77;144.72;;;;;;;-2.90;68.65;95563.94;1725036;82;21213;-53
2020/12/21 06:53:20;;;;;;;247.42;122.55;;;;;;;-2.85;68.84;95565.03;1744633;80;21137;-53
2020/12/21 06:55:49;;;;;;;225.60;118.85;;;;;;;-2.70;68.59;95561.03;1760438;80;21444;-57
2020/12/21 06:58:17;;;;;;;274.48;132.52;;;;;;;-2.60;68.38;95551.13;1749134;80;21201;-51
2020/12/21 07:00:47;;;;;;;282.10;138.03;;;;;;;-2.51;67.91;95555.77;1749253;82;21581;-53
2020/12/21 07:03:16;;;;;;;278.42;136.92;;;;;;;-2.50;67.78;95555.99;1681234;83;21371;-55
2020/12/21 07:05:44;;;;;;;271.65;139.97;;;;;;;-2.45;67.87;95549.03;1744984;80;21181;-53
2020/12/21 07:08:14;;;;;;;278.42;139.57;;;;;;;-2.36;67.83;95561.77;1749443;82;21135;-52
2020/12/21 07:10:43;;;;;;;264.63;137.05;;;;;;;-2.25;67.96;95550.70;1703381;80;21176;-53
2020/12/21 07:13:12;;;;;;;265.25;138.85;;;;;;;-2.11;67.74;95551.63;1748031;80;21122;-55
2020/12/21 07:15:41;;;;;;;254.75;135.80;;;;;;;-1.98;67.54;95554.46;1745980;80;21207;-53
2020/12/21 07:18:11;;;;;;;298.23;146.82;;;;;;;-1.82;67.49;95557.36;1748635;81;21214;-54
2020/12/21 07:20:40;;;;;;;292.27;140.28;;;;;;;-1.74;66.93;95557.73;1768805;80;21131;-55
2020/12/21 07:23:08;;;;;;;345.45;171.62;;;;;;;-1.83;66.76;95556.34;1754227;80;21189;-56
2020/12/21 07:25:39;;;;;;;353.15;174.45;;;;;;;-2.02;66.96;95555.71;1740327;80;21629;-59
2020/12/21 07:28:07;;;;;;;358.82;179.00;;;;;;;-2.20;67.08;95559.08;1703453;82;21456;-56
2020/12/21 07:30:39;;;;;;;446.30;241.05;;;;;;;-2.35;67.62;95556.59;1736896;82;21177;-54
2020/12/21 07:33:07;;;;;;;409.30;218.33;;;;;;;-2.42;67.69;95553.72;1748505;81;21526;-55
2020/12/21 07:35:37;;;;;;;401.15;214.97;;;;;;;-2.43;68.32;95552.16;1748832;82;21184;-55
2020/12/21 07:38:11;;;;;;;404.42;208.87;;;;;;;-2.32;68.20;95545.11;1747368;82;21146;-56
2020/12/21 07:40:43;;;;;;;439.67;228.37;;;;;;;-2.19;68.15;95541.22;1744086;82;21158;-57
2020/12/21 07:43:17;;;;;;;454.38;238.92;;;;;;;-2.07;68.26;95540.36;1717395;82;21181;-54
2020/12/21 07:45:46;;;;;;;417.50;227.57;;;;;;;-1.90;67.87;95537.31;1733862;82;21173;-56
2020/12/21 07:48:14;;;;;;;380.95;210.45;;;;;;;-1.79;67.81;95541.83;1750478;80;21249;-54
2020/12/21 07:50:45;;;;;;;325.60;184.78;;;;;;;-1.69;67.62;95538.02;1762136;80;21201;-57
2020/12/21 07:53:13;;;;;;;322.45;170.45;;;;;;;-1.61;67.65;95544.37;1751570;80;21376;-54
2020/12/21 07:55:56;;;;;;;312.70;168.95;;;;;;;-1.52;67.55;95540.93;1732113;81;21225;-55
2020/12/21 07:58:24;;;;;;;324.70;182.88;;;;;;;-1.48;67.59;95537.16;1735765;82;21098;-54
2020/12/21 08:00:57;;;;;;;295.07;150.78;;;;;;;-1.32;67.48;95545.23;1747730;81;21222;-54
2020/12/21 08:03:26;;;;;;;267.52;145.25;;;;;;;-1.22;67.34;95538.72;1748080;82;21121;-53
2020/12/21 08:06:10;;;;;;;212.57;117.25;;;;;;;-1.21;67.25;95540.83;1751148;80;21347;-54
2020/12/21 08:08:40;;;;;;;163.30;89.20;;;;;;;-1.27;67.25;95542.25;1725224;80;21175;-54
2020/12/21 08:11:16;;;;;;;146.13;82.30;;;;;;;-1.38;67.64;95547.97;1750281;81;21174;-56
2020/12/21 08:13:52;;;;;;;177.02;91.80;;;;;;;-1.44;68.04;95549.39;1748051;81;21182;-56
2020/12/21 08:16:24;;;;;;;141.62;78.25;;;;;;;-1.36;68.25;95548.43;1734693;80;21591;-52
2020/12/21 08:18:53;;;;;;;123.92;70.75;;;;;;;-1.21;68.53;95543.53;1742212;81;21212;-56
2020/12/21 08:21:26;;;;;;;113.45;62.83;;;;;;;-1.00;68.39;95544.78;1722550;82;21098;-54
2020/12/21 08:24:10;;;;;;;116.97;68.25;;;;;;;-0.74;68.42;95534.69;1882933;74;21790;-55
2020/12/21 08:26:39;;;;;;;115.77;63.85;;;;;;;-0.65;68.68;95535.24;1861884;76;21101;-55
2020/12/21 08:29:07;;;;;;;95.15;53.08;;;;;;;-0.55;68.68;95538.14;1857737;76;21528;-57
2020/12/21 08:31:43;;;;;;;88.40;50.33;;;;;;;-0.42;68.76;95540.15;1832519;77;20977;-56
2020/12/21 08:34:14;;;;;;;89.65;53.78;;;;;;;-0.39;68.44;95546.19;1853951;76;21123;-54
2020/12/21 08:36:44;;;;;;;87.67;49.75;;;;;;;-0.38;68.38;95543.69;1822400;77;21183;-57
2020/12/21 08:39:18;;;;;;;101.58;57.38;;;;;;;-0.23;68.19;95549.58;1851838;77;21063;-53
2020/12/21 08:44:37;;;;;;;80.17;47.50;;;;;;;0.07;67.96;95542.56;1862525;75;22252;-54
2020/12/21 08:47:06;;;;;;;112.05;65.37;;;;;;;0.17;68.34;95543.33;1849534;76;21186;-56
2020/12/21 08:49:35;;;;;;;112.20;64.67;;;;;;;0.50;68.19;95539.42;1840504;77;21376;-55
2020/12/21 08:52:04;;;;;;;108.30;63.63;;;;;;;0.94;67.83;95545.09;1828154;76;21120;-56
2020/12/21 08:54:32;;;;;;;105.75;67.67;;;;;;;1.26;67.17;95544.34;1818844;78;21621;-56
2020/12/21 08:57:01;;;;;;;100.20;60.60;;;;;;;1.51;66.41;95532.45;1835755;77;21218;-59
2020/12/21 08:59:31;;;;;;;114.97;67.53;;;;;;;1.76;66.12;95535.64;1821720;78;21581;-56
2020/12/21 09:01:59;;;;;;;105.12;65.35;;;;;;;2.04;65.80;95531.84;1835991;77;21574;-57
2020/12/21 09:04:28;;;;;;;134.47;80.47;;;;;;;2.40;64.92;95531.79;1856630;77;21216;-56
2020/12/21 09:06:57;;;;;;;119.20;72.08;;;;;;;2.71;64.13;95526.39;1833627;77;21117;-58
2020/12/21 09:09:27;;;;;;;136.20;84.37;;;;;;;2.76;63.66;95515.16;1814725;77;21168;-55
2020/12/21 09:11:58;;;;;;;118.28;65.42;;;;;;;2.80;63.18;95515.95;1834443;77;21121;-55
2020/12/21 09:14:28;;;;;;;74.80;49.00;;;;;;;3.02;63.38;95512.23;1828551;77;21489;-57
2020/12/21 09:16:56;;;;;;;84.52;49.48;;;;;;;3.25;62.66;95510.01;1847340;77;21129;-59
2020/12/21 09:19:25;;;;;;;85.40;50.98;;;;;;;3.25;61.95;95499.89;1811408;77;21058;-56
2020/12/21 09:21:54;;;;;;;73.80;45.10;;;;;;;3.13;62.11;95502.97;1826103;77;21054;-57
2020/12/21 09:24:23;;;;;;;84.95;52.27;;;;;;;3.02;62.08;95500.76;1832747;77;21564;-54
2020/12/21 09:26:53;;;;;;;60.90;39.18;;;;;;;2.96;62.33;95496.06;1788752;77;21163;-56
2020/12/21 09:29:22;;;;;;;78.55;48.78;;;;;;;3.06;62.43;95484.48;1832719;78;21594;-57
2020/12/21 09:31:50;;;;;;;65.78;42.85;;;;;;;3.23;62.35;95485.14;1853826;77;21130;-55
2020/12/21 09:34:19;;;;;;;62.30;39.75;;;;;;;3.40;61.71;95484.44;1837057;76;21187;-54
2020/12/21 09:36:48;;;;;;;49.20;32.63;;;;;;;3.60;61.54;95479.06;1823233;76;21046;-55
2020/12/21 09:39:16;;;;;;;52.65;34.13;;;;;;;3.84;60.94;95480.28;1827887;78;22124;-56
2020/12/21 09:41:44;;;;;;;57.33;31.68;;;;;;;3.83;60.57;95468.61;1817246;77;21286;-55
2020/12/21 09:44:13;;;;;;;53.55;33.05;;;;;;;3.72;60.96;95466.44;1781850;78;21186;-57
2020/12/21 09:46:42;;;;;;;75.70;43.68;;;;;;;3.55;61.60;95469.12;1789691;78;21232;-58
2020/12/21 09:49:11;;;;;;;63.05;37.28;;;;;;;3.50;61.84;95468.16;1786881;78;21133;-53
2020/12/21 09:51:39;;;;;;;56.37;35.43;;;;;;;3.76;61.82;95453.64;1799810;78;21139;-52
2020/12/21 09:54:08;;;;;;;60.03;34.88;;;;;;;4.15;61.07;95455.81;1806504;78;21204;-53
2020/12/21 09:56:37;;;;;;;78.85;44.38;;;;;;;4.35;60.53;95447.45;1793770;78;21159;-53
2020/12/21 09:59:06;;;;;;;85.38;49.15;;;;;;;4.46;60.38;95452.28;1792605;79;21619;-54
2020/12/21 10:01:36;;;;;;;86.53;48.38;;;;;;;4.74;59.98;95443.29;1792899;78;21127;-53
2020/12/21 10:04:05;;;;;;;84.40;49.60;;;;;;;5.19;58.98;95438.30;1776938;79;21382;-54
2020/12/21 10:06:33;;;;;;;82.65;47.55;;;;;;;5.67;58.16;95441.38;1799560;78;21124;-54
2020/12/21 10:09:02;;;;;;;90.60;48.08;;;;;;;6.15;56.77;95428.61;1794626;78;21160;-56
2020/12/21 10:11:32;;;;;;;67.20;38.13;;;;;;;6.49;56.42;95432.23;1796318;78;21122;-53
2020/12/21 10:14:01;;;;;;;61.30;36.20;;;;;;;7.01;55.44;95429.55;1791285;79;21038;-55
2020/12/21 10:16:30;;;;;;;45.55;27.62;;;;;;;7.30;54.24;95423.38;1790147;78;21375;-54
2020/12/21 10:18:58;;;;;;;57.23;37.53;;;;;;;7.37;53.75;95421.30;1791377;79;21170;-53
2020/12/21 10:21:27;;;;;;;53.98;32.83;;;;;;;7.36;53.67;95410.16;1783522;79;21112;-54
2020/12/21 10:23:56;;;;;;;84.47;52.80;;;;;;;7.56;53.44;95409.70;1784183;78;21069;-54
2020/12/21 10:26:25;;;;;;;86.55;55.43;;;;;;;7.72;52.80;95413.98;1802630;79;21133;-56
2020/12/21 10:28:54;;;;;;;57.43;35.83;;;;;;;7.85;52.18;95406.77;1790830;78;21843;-52
2020/12/21 10:31:23;;;;;;;68.30;40.20;;;;;;;8.03;51.93;95412.77;1793335;79;21203;-53
2020/12/21 10:33:53;;;;;;;43.25;27.98;;;;;;;8.21;51.37;95409.19;1786010;79;21108;-54
2020/12/21 10:36:21;;;;;;;32.65;21.90;;;;;;;8.33;51.46;95409.19;1798680;79;21109;-53
2020/12/21 10:38:50;;;;;;;40.28;24.92;;;;;;;8.38;51.04;95410.08;1789004;79;21129;-54
2020/12/21 10:41:19;;;;;;;36.42;24.32;;;;;;;8.38;50.77;95408.13;1783800;78;21550;-53
2020/12/21 10:43:48;;;;;;;38.95;25.15;;;;;;;8.49;50.28;95400.52;1802608;78;21619;-54
2020/12/21 10:46:20;;;;;;;41.00;27.98;;;;;;;8.76;50.24;95395.72;1784241;79;21125;-53
2020/12/21 10:48:49;;;;;;;43.42;28.52;;;;;;;9.13;49.38;95399.52;1806608;77;21201;-54
2020/12/21 10:51:29;;;;;;;42.58;29.67;;;;;;;9.57;48.45;95397.63;1797007;78;21073;-52
2020/12/21 10:53:57;;;;;;;40.05;27.80;;;;;;;10.04;47.88;95394.86;1794211;77;21194;-52
2020/12/21 10:56:27;;;;;;;31.17;21.23;;;;;;;10.52;46.79;95390.77;1801069;77;21081;-55
2020/12/21 10:58:55;;;;;;;29.77;19.20;;;;;;;10.72;45.31;95388.69;1799182;77;21413;-55
2020/12/21 11:01:24;;;;;;;27.45;18.82;;;;;;;10.35;45.52;95396.09;1794479;79;21089;-56
2020/12/21 11:03:53;;;;;;;30.60;18.07;;;;;;;9.93;46.25;95388.20;1784603;79;21195;-55
2020/12/21 11:06:23;;;;;;;29.77;19.00;;;;;;;9.78;47.00;95393.08;1797567;79;21204;-54
2020/12/21 11:08:52;;;;;;;33.35;21.85;;;;;;;9.80;47.15;95398.92;1812262;77;21216;-55
2020/12/21 11:11:27;;;;;;;50.45;28.80;;;;;;;9.94;47.20;95396.62;1828302;77;21198;-51
2020/12/21 11:13:55;;;;;;;50.25;27.07;;;;;;;10.17;46.61;95397.12;1845425;77;21123;-52
2020/12/21 11:16:24;;;;;;;40.63;23.25;;;;;;;10.31;45.95;95391.30;1845840;77;21044;-55
2020/12/21 11:18:52;;;;;;;36.00;20.37;;;;;;;10.19;45.93;95386.46;1845592;77;22184;-52
2020/12/21 11:21:21;;;;;;;34.53;20.32;;;;;;;10.07;45.91;95380.25;1844453;77;21195;-56
2020/12/21 11:23:51;;;;;;;30.30;17.48;;;;;;;10.08;45.96;95381.80;1843671;77;21135;-54
2020/12/21 11:26:20;;;;;;;27.67;18.10;;;;;;;10.21;45.89;95373.05;1845548;77;21659;-56